createdAt,value
2018-08-30T04:30:26.035Z,3.60
2018-08-30T04:32:54.189Z,3.40
2018-08-30T04:35:23.332Z,3.10
2018-08-30T04:37:51.428Z,3.03
2018-08-30T04:40:19.516Z,3.67
2018-08-30T04:42:47.606Z,3.20
2018-08-30T04:45:15.651Z,3.40
2018-08-30T04:47:43.731Z,3.40
2018-08-30T04:50:11.952Z,3.60
2018-08-30T04:52:39.478Z,3.10
2018-08-30T04:55:07.545Z,3.13
2018-08-30T04:57:35.674Z,3.37
2018-08-30T05:00:03.848Z,3.00
2018-08-30T05:02:31.897Z,2.97
2018-08-30T05:04:59.972Z,2.90
2018-08-30T05:07:28.040Z,3.20
2018-08-30T05:09:56.139Z,2.90
2018-08-30T05:12:24.172Z,3.10
2018-08-30T05:14:52.240Z,2.77
2018-08-30T05:17:20.354Z,2.90
2018-08-30T05:19:48.406Z,2.80
2018-08-30T05:22:16.598Z,2.73
2018-08-30T05:24:44.665Z,2.83
2018-08-30T05:27:12.745Z,3.10
2018-08-30T05:29:40.868Z,3.00
2018-08-30T05:32:08.917Z,3.00
2018-08-30T05:34:36.976Z,3.00
2018-08-30T05:37:05.133Z,3.03
2018-08-30T05:39:33.241Z,2.63
2018-08-30T05:42:01.308Z,2.90
2018-08-30T05:44:29.402Z,3.00
2018-08-30T05:46:57.480Z,3.43
2018-08-30T05:49:25.749Z,3.20
2018-08-30T05:51:53.821Z,2.97
2018-08-30T05:54:21.985Z,3.30
2018-08-30T05:56:50.092Z,5.20
2018-08-30T05:59:18.191Z,5.30
2018-08-30T06:01:46.366Z,5.33
2018-08-30T06:04:14.429Z,5.83
2018-08-30T06:06:42.532Z,5.83
2018-08-30T06:09:10.616Z,5.27
2018-08-30T06:11:38.709Z,5.40
2018-08-30T06:14:06.827Z,4.83
2018-08-30T06:16:34.911Z,4.63
2018-08-30T06:19:03.419Z,4.73
2018-08-30T06:21:31.496Z,6.60
2018-08-30T06:23:59.592Z,6.50
2018-08-30T06:26:27.664Z,5.33
2018-08-30T06:28:55.752Z,6.10
2018-08-30T06:31:23.821Z,5.50
2018-08-30T06:33:51.957Z,6.43
2018-08-30T06:36:20.077Z,6.20
2018-08-30T06:38:48.270Z,7.10
2018-08-30T06:41:16.233Z,6.20
2018-08-30T06:43:44.304Z,5.13
2018-08-30T06:49:15.240Z,5.90
2018-08-30T06:51:44.133Z,5.60
2018-08-30T06:54:13.332Z,5.87
2018-08-30T06:56:41.405Z,6.40
2018-08-30T06:59:09.509Z,5.23
2018-08-30T07:01:37.889Z,5.07
2018-08-30T07:04:06.500Z,5.10
2018-08-30T07:06:34.507Z,4.60
2018-08-30T07:09:02.685Z,4.83
2018-08-30T07:11:30.896Z,5.20
2018-08-30T07:13:58.972Z,5.17
2018-08-30T07:16:27.059Z,4.83
2018-08-30T07:18:55.177Z,5.37
2018-08-30T07:21:23.324Z,5.60
2018-08-30T07:23:51.460Z,5.50
2018-08-30T07:26:19.543Z,4.97
2018-08-30T07:28:47.637Z,4.70
2018-08-30T07:31:15.754Z,4.60
2018-08-30T07:33:43.921Z,3.60
2018-08-30T07:36:12.094Z,3.93
2018-08-30T07:38:40.275Z,3.90
2018-08-30T07:41:08.380Z,3.53
2018-08-30T07:43:36.516Z,3.97
2018-08-30T07:46:04.627Z,3.83
2018-08-30T07:48:32.863Z,3.10
2018-08-30T07:51:01.042Z,3.87
2018-08-30T07:53:29.000Z,3.70
2018-08-30T07:55:58.024Z,3.77
2018-08-30T07:58:26.380Z,3.23
2018-08-30T08:00:54.436Z,3.87
2018-08-30T08:03:22.511Z,3.70
2018-08-30T08:05:50.629Z,3.50
2018-08-30T08:08:18.657Z,3.27
2018-08-30T08:10:47.048Z,3.17
2018-08-30T08:13:15.132Z,3.60
2018-08-30T08:15:43.244Z,3.57
2018-08-30T08:18:11.376Z,3.37
2018-08-30T08:20:39.441Z,3.50
2018-08-30T08:23:07.560Z,2.97
2018-08-30T08:25:35.650Z,3.10
2018-08-30T08:28:03.756Z,3.37
2018-08-30T08:30:31.931Z,3.10
2018-08-30T08:33:00.107Z,3.30
2018-08-30T08:35:28.209Z,2.90
2018-08-30T08:37:56.351Z,2.33
2018-08-30T08:40:24.526Z,3.17
2018-08-30T08:42:52.677Z,2.80
2018-08-30T08:45:20.773Z,2.80
2018-08-30T08:47:48.932Z,2.80
2018-08-30T08:50:17.022Z,2.87
2018-08-30T08:52:45.112Z,2.83
2018-08-30T08:55:13.188Z,2.80
2018-08-30T08:57:41.368Z,2.70
2018-08-30T09:00:09.473Z,2.73
2018-08-30T09:02:37.585Z,2.80
2018-08-30T09:05:06.256Z,3.17
2018-08-30T09:07:34.417Z,2.83
2018-08-30T09:10:02.500Z,3.07
2018-08-30T09:12:30.621Z,3.03
2018-08-30T09:14:58.726Z,2.90
2018-08-30T09:17:26.848Z,3.27
2018-08-30T09:19:54.943Z,3.00
2018-08-30T09:22:23.051Z,3.40
2018-08-30T09:24:51.148Z,2.80
2018-08-30T09:27:19.302Z,2.80
2018-08-30T09:29:47.415Z,2.70
2018-08-30T09:32:15.540Z,2.57
2018-08-30T09:34:43.784Z,3.10
2018-08-30T09:37:13.961Z,3.20
2018-08-30T09:39:42.351Z,2.47
2018-08-30T09:42:10.529Z,3.53
2018-08-30T09:44:38.616Z,3.10
2018-08-30T09:47:06.740Z,3.20
2018-08-30T09:49:34.899Z,2.77
2018-08-30T09:52:03.269Z,3.03
2018-08-30T09:54:31.388Z,3.00
2018-08-30T09:56:59.553Z,2.40
2018-08-30T09:59:27.558Z,3.50
2018-08-30T10:02:02.475Z,2.93
2018-08-30T10:04:31.010Z,3.60
2018-08-30T10:06:59.439Z,2.90
2018-08-30T10:09:27.785Z,3.90
2018-08-30T10:11:55.921Z,3.27
2018-08-30T10:14:24.101Z,4.00
2018-08-30T10:16:52.224Z,3.23
2018-08-30T10:19:20.458Z,4.60
2018-08-30T10:21:48.963Z,3.87
2018-08-30T10:24:17.092Z,3.80
2018-08-30T10:26:45.184Z,4.27
2018-08-30T10:29:13.537Z,4.00
2018-08-30T10:31:41.642Z,3.80
2018-08-30T10:34:09.700Z,3.57
2018-08-30T10:36:37.774Z,4.00
2018-08-30T10:39:07.169Z,4.07
2018-08-30T10:41:35.259Z,4.00
2018-08-30T10:44:03.342Z,4.50
2018-08-30T10:46:31.460Z,4.60
2018-08-30T10:48:59.517Z,4.27
2018-08-30T10:51:27.668Z,4.43
2018-08-30T10:53:55.751Z,4.50
2018-08-30T10:56:23.944Z,4.80
2018-08-30T10:58:52.044Z,4.93
2018-08-30T11:01:20.168Z,4.43
2018-08-30T11:03:48.303Z,4.30
2018-08-30T11:06:16.376Z,4.10
2018-08-30T11:08:44.623Z,6.60
2018-08-30T11:11:12.249Z,4.93
2018-08-30T11:13:40.337Z,4.93
2018-08-30T11:16:08.581Z,4.80
2018-08-30T11:18:36.651Z,4.30
2018-08-30T11:21:04.900Z,4.17
2018-08-30T11:23:33.027Z,4.30
2018-08-30T11:26:01.079Z,4.83
2018-08-30T11:28:29.163Z,5.10
2018-08-30T11:30:57.255Z,4.93
2018-08-30T11:33:25.445Z,4.80
2018-08-30T11:35:53.540Z,4.37
2018-08-30T11:38:21.668Z,4.90
2018-08-30T11:40:49.761Z,4.93
2018-08-30T11:43:17.860Z,4.23
2018-08-30T11:45:45.954Z,5.33
2018-08-30T11:48:14.052Z,4.70
2018-08-30T11:50:42.140Z,4.50
2018-08-30T11:53:10.296Z,4.90
2018-08-30T11:55:38.321Z,4.97
2018-08-30T11:58:06.428Z,4.80
2018-08-30T12:00:34.513Z,5.00
2018-08-30T12:03:02.704Z,5.57
2018-08-30T12:05:30.800Z,5.43
2018-08-30T12:07:59.191Z,5.10
2018-08-30T12:10:27.997Z,5.43
2018-08-30T12:12:56.324Z,5.03
2018-08-30T12:15:24.406Z,6.60
2018-08-30T12:17:52.582Z,5.77
2018-08-30T12:20:21.629Z,5.77
2018-08-30T12:22:50.264Z,6.27
2018-08-30T12:25:18.435Z,7.17
2018-08-30T12:27:46.572Z,7.10
2018-08-30T12:30:14.837Z,6.10
2018-08-30T12:32:43.177Z,5.97
2018-08-30T12:35:11.337Z,5.80
2018-08-30T12:37:39.415Z,7.00
2018-08-30T12:40:07.622Z,6.30
2018-08-30T12:42:35.626Z,7.03
2018-08-30T12:45:03.659Z,7.30
2018-08-30T12:47:31.808Z,6.87
2018-08-30T12:50:00.009Z,6.60
2018-08-30T12:52:28.277Z,5.80
2018-08-30T12:54:56.332Z,6.13
2018-08-30T12:57:24.459Z,8.00
2018-08-30T12:59:52.619Z,6.63
2018-08-30T13:02:20.731Z,7.80
2018-08-30T13:04:48.958Z,6.33
2018-08-30T13:07:16.925Z,7.80
2018-08-30T13:09:45.040Z,7.40
2018-08-30T13:12:14.434Z,7.90
2018-08-30T13:14:42.424Z,7.33
2018-08-30T13:17:10.487Z,7.47
2018-08-30T13:19:38.912Z,7.50
2018-08-30T13:22:06.954Z,6.90
2018-08-30T13:24:35.093Z,7.73
2018-08-30T13:27:03.277Z,5.73
2018-08-30T13:29:31.219Z,6.90
2018-08-30T13:31:59.452Z,7.03
2018-08-30T13:34:28.510Z,6.63
2018-08-30T13:36:56.720Z,6.47
2018-08-30T13:39:24.908Z,6.60
2018-08-30T13:41:52.657Z,7.43
2018-08-30T13:44:20.830Z,6.07
2018-08-30T13:46:49.030Z,6.93
2018-08-30T13:49:16.829Z,7.83
2018-08-30T13:51:45.382Z,6.87
2018-08-30T13:54:13.247Z,6.60
2018-08-30T13:56:41.414Z,6.43
2018-08-30T13:59:09.442Z,6.50
2018-08-30T14:01:37.365Z,6.97
2018-08-30T14:04:05.569Z,6.70
2018-08-30T14:06:33.493Z,7.33
2018-08-30T14:09:01.695Z,7.63
2018-08-30T14:11:29.734Z,7.23
2018-08-30T14:13:58.813Z,7.80
2018-08-30T14:16:26.604Z,7.77
2018-08-30T14:18:54.788Z,7.97
2018-08-30T14:21:22.838Z,7.43
2018-08-30T14:23:50.983Z,8.33
2018-08-30T14:26:19.020Z,7.87
2018-08-30T14:28:47.157Z,8.50
2018-08-30T14:31:15.252Z,8.47
2018-08-30T14:33:43.312Z,7.20
2018-08-30T14:36:11.425Z,7.93
2018-08-30T14:38:39.567Z,7.47
2018-08-30T14:41:07.755Z,7.97
2018-08-30T14:43:35.766Z,7.90
2018-08-30T14:46:04.704Z,8.20
2018-08-30T14:48:32.892Z,8.40
2018-08-30T14:51:00.866Z,7.77
2018-08-30T14:53:29.181Z,8.80
2018-08-30T14:55:57.590Z,8.50
2018-08-30T14:58:27.750Z,8.37
2018-08-30T15:00:55.845Z,7.10
2018-08-30T15:03:25.680Z,8.20
2018-08-30T15:05:53.831Z,7.50
2018-08-30T15:08:21.869Z,8.50
2018-08-30T15:10:49.959Z,7.90
2018-08-30T15:13:18.055Z,6.80
2018-08-30T15:15:45.756Z,7.43
2018-08-30T15:18:13.866Z,8.50
2018-08-30T15:20:41.949Z,8.40
2018-08-30T15:23:10.293Z,8.70
2018-08-30T15:25:38.593Z,8.50
2018-08-30T15:28:07.064Z,8.20
2018-08-30T15:30:35.279Z,7.70
2018-08-30T15:33:03.292Z,8.07
2018-08-30T15:35:31.465Z,8.63
2018-08-30T15:37:59.450Z,8.40
2018-08-30T15:40:27.763Z,8.90
2018-08-30T15:42:55.778Z,7.83
2018-08-30T15:45:23.848Z,8.60
2018-08-30T15:47:51.981Z,9.63
2018-08-30T15:50:20.089Z,8.60
2018-08-30T15:52:48.266Z,10.10
2018-08-30T15:55:16.368Z,9.07
2018-08-30T15:57:44.503Z,9.50
2018-08-30T16:00:13.563Z,9.90
2018-08-30T16:02:41.629Z,9.70
2018-08-30T16:05:09.845Z,8.47
2018-08-30T16:07:37.809Z,9.63
2018-08-30T16:10:06.609Z,9.57
2018-08-30T16:12:34.245Z,9.83
2018-08-30T16:15:02.372Z,9.50
2018-08-30T16:17:30.489Z,8.50
2018-08-30T16:19:59.424Z,8.57
2018-08-30T16:22:41.324Z,7.60
2018-08-30T16:25:09.404Z,6.60
2018-08-30T16:27:37.514Z,7.13
2018-08-30T16:30:05.776Z,7.53
2018-08-30T16:32:33.688Z,7.37
2018-08-30T16:35:01.830Z,7.70
2018-08-30T16:37:29.841Z,7.30
2018-08-30T16:39:58.046Z,6.90
2018-08-30T16:42:26.228Z,7.20
2018-08-30T16:44:54.316Z,7.50
2018-08-30T16:47:22.498Z,6.77
2018-08-30T16:49:50.509Z,7.13
2018-08-30T16:52:18.625Z,7.87
2018-08-30T16:54:46.672Z,8.03
2018-08-30T16:57:14.748Z,7.37
2018-08-30T16:59:42.840Z,7.87
2018-08-30T17:02:11.001Z,7.80
2018-08-30T17:04:38.996Z,8.07
2018-08-30T17:07:07.068Z,6.80
2018-08-30T17:09:35.147Z,6.90
2018-08-30T17:12:03.497Z,8.90
2018-08-30T17:14:31.592Z,8.57
2018-08-30T17:16:59.693Z,8.47
2018-08-30T17:19:31.883Z,7.10
2018-08-30T17:22:00.055Z,7.60
2018-08-30T17:24:28.179Z,7.97
2018-08-30T17:26:56.261Z,8.47
2018-08-30T17:29:24.428Z,9.10
2018-08-30T17:31:52.456Z,8.60
2018-08-30T17:34:20.592Z,8.97
2018-08-30T17:36:48.840Z,8.10
2018-08-30T17:39:16.974Z,9.80
2018-08-30T17:41:45.089Z,9.30
2018-08-30T17:44:13.167Z,8.47
2018-08-30T17:46:41.276Z,9.10
2018-08-30T17:49:09.396Z,9.77
2018-08-30T17:51:37.556Z,10.10
2018-08-30T17:54:05.602Z,9.17
2018-08-30T17:56:33.688Z,10.40
2018-08-30T17:59:02.688Z,9.90
2018-08-30T18:01:30.959Z,10.60
2018-08-30T18:03:58.864Z,10.13
2018-08-30T18:06:26.943Z,9.47
2018-08-30T18:08:55.110Z,9.60
2018-08-30T18:11:23.154Z,9.27
2018-08-30T18:13:51.624Z,9.23
2018-08-30T18:16:19.704Z,9.33
2018-08-30T18:18:47.825Z,9.80
2018-08-30T18:21:15.918Z,9.23
2018-08-30T18:23:44.020Z,10.30
2018-08-30T18:26:12.099Z,9.50
2018-08-30T18:28:40.190Z,10.23
2018-08-30T18:31:08.269Z,10.00
2018-08-30T18:33:36.363Z,10.60
2018-08-30T18:36:04.436Z,11.00
2018-08-30T18:38:32.516Z,10.30
2018-08-30T18:41:00.622Z,8.30
2018-08-30T18:43:28.724Z,10.30
2018-08-30T18:45:56.813Z,9.93
2018-08-30T18:48:25.086Z,9.40
2018-08-30T18:50:53.171Z,9.40
2018-08-30T18:53:21.244Z,9.67
2018-08-30T18:55:49.323Z,10.23
2018-08-30T18:58:17.413Z,10.00
2018-08-30T19:00:46.444Z,11.23
2018-08-30T19:03:14.520Z,10.27
2018-08-30T19:05:42.625Z,9.60
2018-08-30T19:08:10.739Z,9.70
2018-08-30T19:10:38.959Z,10.60
2018-08-30T19:13:08.245Z,9.67
2018-08-30T19:15:41.777Z,10.07
2018-08-30T19:18:15.099Z,10.10
2018-08-30T19:20:43.193Z,10.10
2018-08-30T19:23:11.308Z,10.93
2018-08-30T19:25:39.389Z,10.60
2018-08-30T19:28:07.493Z,10.40
2018-08-30T19:30:35.735Z,10.73
2018-08-30T19:33:03.853Z,10.10
2018-08-30T19:35:37.570Z,10.40
2018-08-30T19:38:05.652Z,11.70
2018-08-30T19:40:39.334Z,10.40
2018-08-30T19:43:07.505Z,11.07
2018-08-30T19:45:35.580Z,11.20
2018-08-30T19:48:03.797Z,10.20
2018-08-30T19:50:33.053Z,10.07
2018-08-30T19:53:01.176Z,10.73
2018-08-30T19:55:29.275Z,9.57
2018-08-30T19:57:57.432Z,10.30
2018-08-30T20:00:25.612Z,11.70
2018-08-30T20:02:54.573Z,11.30
2018-08-30T20:05:22.713Z,10.80
2018-08-30T20:07:50.827Z,10.53
2018-08-30T20:10:18.973Z,11.87
2018-08-30T20:12:47.122Z,11.10
2018-08-30T20:15:15.932Z,11.50
2018-08-30T20:17:44.048Z,10.93
2018-08-30T20:20:12.128Z,10.17
2018-08-30T20:22:40.220Z,9.63
2018-08-30T20:25:08.324Z,10.30
2018-08-30T20:27:36.489Z,10.83
2018-08-30T20:30:04.865Z,10.77
2018-08-30T20:32:33.228Z,11.40
2018-08-30T20:35:01.422Z,11.37
2018-08-30T20:37:29.597Z,11.40
2018-08-30T20:39:57.669Z,10.80
2018-08-30T20:42:25.784Z,11.30
2018-08-30T20:44:53.906Z,10.93
2018-08-30T20:47:22.002Z,10.50
2018-08-30T20:49:50.097Z,11.43
2018-08-30T20:52:18.180Z,10.87
2018-08-30T20:54:46.302Z,11.57
2018-08-30T20:57:14.478Z,11.37
2018-08-30T20:59:42.561Z,11.80
2018-08-30T21:02:10.700Z,12.07
2018-08-30T21:04:38.840Z,11.47
2018-08-30T21:07:06.988Z,11.90
2018-08-30T21:09:35.144Z,11.80
2018-08-30T21:12:03.236Z,12.40
2018-08-30T21:14:31.320Z,10.70
2018-08-30T21:16:58.965Z,11.60
2018-08-30T21:19:27.116Z,10.73
2018-08-30T21:21:55.232Z,11.37
2018-08-30T21:24:23.356Z,11.47
2018-08-30T21:26:51.445Z,11.40
2018-08-30T21:29:19.592Z,11.00
2018-08-30T21:31:47.711Z,12.20
2018-08-30T21:34:15.800Z,11.20
2018-08-30T21:36:43.920Z,11.30
2018-08-30T21:39:12.032Z,10.90
2018-08-30T21:41:40.176Z,12.17
2018-08-30T21:44:08.302Z,11.23
2018-08-30T21:46:36.383Z,10.80
2018-08-30T21:49:04.692Z,11.80
2018-08-30T21:51:32.800Z,11.77
2018-08-30T21:54:00.897Z,12.00
2018-08-30T21:56:29.011Z,10.40
2018-08-30T21:58:57.179Z,11.57
2018-08-30T22:01:25.299Z,13.10
2018-08-30T22:03:53.450Z,11.37
2018-08-30T22:06:21.621Z,11.90
2018-08-30T22:08:49.750Z,11.27
2018-08-30T22:11:17.888Z,11.13
2018-08-30T22:13:46.164Z,11.80
2018-08-30T22:16:14.319Z,12.10
2018-08-30T22:18:42.392Z,12.20
2018-08-30T22:21:10.521Z,12.23
2018-08-30T22:23:38.637Z,11.47
2018-08-30T22:26:06.721Z,11.37
2018-08-30T22:28:34.872Z,11.57
2018-08-30T22:31:03.060Z,11.23
2018-08-30T22:33:31.232Z,13.00
2018-08-30T22:35:59.297Z,10.67
2018-08-30T22:38:27.412Z,11.40
2018-08-30T22:40:55.739Z,12.57
2018-08-30T22:43:23.666Z,11.23
2018-08-30T23:43:46.240Z,11.50
2018-08-30T23:46:15.469Z,11.33
2018-08-30T23:48:43.665Z,11.53
2018-08-30T23:51:11.849Z,11.40
2018-08-30T23:53:39.972Z,11.80
2018-08-30T23:56:09.295Z,11.00
2018-08-30T23:58:48.986Z,12.60
